Abeche Airport


Codes: FTTC/AEH
Name: Abeche Airport
City:
Country: Chad
Elevation: 1788 ft.
Wikipedia:

Photos at Abeche Airport


   Photos courtesy of SpottingLog. You can add your own sightings and photos by signing up for a free trial today.



No photos found.

Weather at Abeche Airport


Time (UTC)DescriptionTempratureWindCloud coverageVisibilityPressureHumidity
15-Apr-2024 18:00Overcast Clouds33°C0 mph, N100%10000m1005hPa10%
15-Apr-2024 21:00Overcast Clouds32°C9 mph, E100%10000m1006hPa10%
16-Apr-2024 00:00Overcast Clouds30°C11 mph, E96%10000m1006hPa10%
16-Apr-2024 03:00Scattered Clouds29°C18 mph, E33%10000m1007hPa10%
16-Apr-2024 06:00Scattered Clouds30°C18 mph, E41%10000m1009hPa10%
16-Apr-2024 09:00Clear Sky39°C18 mph, SE9%10000m1009hPa6%
16-Apr-2024 12:00Clear Sky42°C7 mph, S5%10000m1005hPa6%
16-Apr-2024 15:00Clear Sky41°C7 mph, SW7%10000m1003hPa6%
16-Apr-2024 18:00Clear Sky35°C7 mph, W6%10000m1004hPa9%
16-Apr-2024 21:00Clear Sky33°C4 mph, NW1%10000m1005hPa10%
17-Apr-2024 00:00Clear Sky31°C7 mph, NE0%10000m1005hPa11%
17-Apr-2024 03:00Clear Sky28°C9 mph, E1%10000m1006hPa11%
17-Apr-2024 06:00Clear Sky31°C11 mph, E3%10000m1007hPa10%
17-Apr-2024 09:00Few Clouds41°C11 mph, SE11%10000m1006hPa6%
17-Apr-2024 12:00Scattered Clouds43°C2 mph, S40%10000m1003hPa5%
17-Apr-2024 15:00Few Clouds42°C4 mph, NW13%10000m1001hPa5%
17-Apr-2024 18:00Clear Sky35°C4 mph, NW10%10000m1003hPa8%
17-Apr-2024 21:00Scattered Clouds33°C4 mph, NE50%10000m1005hPa9%
18-Apr-2024 00:00Broken Clouds31°C7 mph, NE69%10000m1004hPa11%
18-Apr-2024 03:00Broken Clouds29°C9 mph, E82%10000m1005hPa11%
18-Apr-2024 06:00Overcast Clouds33°C13 mph, E89%10000m1007hPa8%
18-Apr-2024 09:00Broken Clouds42°C16 mph, SE68%10000m1006hPa5%
18-Apr-2024 12:00Scattered Clouds44°C9 mph, SE39%10000m1003hPa5%
18-Apr-2024 15:00Few Clouds43°C4 mph, S13%10000m1002hPa5%
18-Apr-2024 18:00Few Clouds36°C4 mph, W12%10000m1003hPa8%
18-Apr-2024 21:00Clear Sky35°C9 mph, NE2%10000m1004hPa8%
19-Apr-2024 00:00Scattered Clouds31°C9 mph, NE45%10000m1003hPa9%
19-Apr-2024 03:00Few Clouds29°C9 mph, E19%10000m1005hPa11%
19-Apr-2024 06:00Scattered Clouds32°C13 mph, E36%10000m1006hPa10%
19-Apr-2024 09:00Scattered Clouds42°C16 mph, SE26%10000m1005hPa5%
19-Apr-2024 12:00Scattered Clouds44°C16 mph, S29%10000m1002hPa5%
19-Apr-2024 15:00Broken Clouds43°C9 mph, S74%10000m1000hPa5%
19-Apr-2024 18:00Scattered Clouds36°C9 mph, SW50%10000m1002hPa7%
19-Apr-2024 21:00Clear Sky32°C4 mph, W3%10000m1003hPa9%
20-Apr-2024 00:00Clear Sky30°C7 mph, E4%10000m1003hPa10%
20-Apr-2024 03:00Broken Clouds30°C7 mph, E57%10000m1003hPa10%
20-Apr-2024 06:00Broken Clouds33°C7 mph, E79%10000m1005hPa10%
20-Apr-2024 09:00Overcast Clouds39°C16 mph, S100%10000m1006hPa7%
20-Apr-2024 12:00Overcast Clouds42°C16 mph, S99%10000m1002hPa12%
20-Apr-2024 15:00Overcast Clouds41°C9 mph, SW97%10000m1001hPa12%